Caribou Municipal Airport Caribou US
ICAO: KCAR
IATA: CAR
Category: Medium
Scheduled Services: No

Elevation: 626 ft
TransAlt. 18000 ft.

Airport Communications:
ASOS:135.125
BOSTON CNTR:124.75
BANGOR RDO:122.3
CTAF/UNICOM:122.8

KCAR Zoom In..

Runways:

(A) RW 01 length 4003 ft width 100 ft
---- / hdg 7

(B) RW 11 length 3016 ft width 75 ft
---- / hdg 107

(C) RW 19 length 4003 ft width 100 ft
---- / hdg 187

(D) RW 29 length 3016 ft width 75 ft
---- / hdg 287

Location; KCAR
Day. 21 / Time. 23.54 Zulu
* Altimeter: 30.12
* Temperature: 04° c. 39.2°f.
* Wind from: 320° Speed 09 kn with Gusts up to 15 kn.
Dewpoint: -06° c.
Visibility: 10 Statute Miles.
Clouds: Overcast 9500 ft.

KCAR 212354Z AUTO 32009G15KT 10SM OVC095 04/M06 A3012 RMK AO2 SLP211 T00441061 10067 20044 53014


Wind From 320°
Speed 09 kn.

  YouTube Music Video
 
jpsmedia.com for Web Design  worldairports.se 2018   terms of use